Time;durP1;ratioP1;P1;durP2;ratioP2;P2;SDS_P1;SDS_P2;PMS_P1;PMS_P2;Temp;Humidity;BMP_temperature;BMP_pressure;BME280_temperature;BME280_humidity;BME280_pressure;Samples;Min_cycle;Max_cycle;Signal;HPM_P1;HPM_P2
2022/06/29 00:01:37;;;;;;;4.43;2.30;;;18.70;99.90;;;15.63;100.00;100613.25;5044449;28;20045;-87
2022/06/29 00:04:04;;;;;;;4.72;2.35;;;18.70;99.90;;;15.59;100.00;100605.66;5047660;28;20124;-88
2022/06/29 00:06:31;;;;;;;5.43;2.35;;;18.60;99.90;;;15.56;100.00;100606.13;5044310;28;20554;-88
2022/06/29 00:08:58;;;;;;;7.07;1.98;;;18.60;99.90;;;15.53;100.00;100607.38;5046632;28;20041;-89
2022/06/29 00:11:26;;;;;;;3.97;1.90;;;18.60;99.90;;;15.52;100.00;100604.88;5043729;28;20124;-88
2022/06/29 00:13:53;;;;;;;4.07;2.10;;;18.60;99.90;;;15.48;100.00;100607.19;5045542;28;20680;-87
2022/06/29 00:16:21;;;;;;;4.60;2.15;;;18.60;99.90;;;15.46;100.00;100601.06;5050431;28;20045;-88
2022/06/29 00:18:49;;;;;;;4.57;2.10;;;18.50;99.90;;;15.42;100.00;100595.19;5042125;28;20484;-87
2022/06/29 00:21:16;;;;;;;5.50;2.33;;;18.50;99.90;;;15.39;100.00;100600.25;5044681;28;20041;-88
2022/06/29 00:23:43;;;;;;;5.10;2.05;;;18.50;99.90;;;15.35;100.00;100599.00;5058696;28;20049;-88
2022/06/29 00:26:10;;;;;;;4.75;2.28;;;18.50;99.90;;;15.32;100.00;100582.97;5051963;28;20041;-88
2022/06/29 00:28:38;;;;;;;4.20;2.10;;;18.40;99.90;;;15.31;100.00;100592.25;5042645;28;20131;-88
2022/06/29 00:31:05;;;;;;;3.83;1.90;;;18.40;99.90;;;15.30;100.00;100587.81;5043187;28;20041;-87
2022/06/29 00:33:34;;;;;;;4.93;2.20;;;18.40;99.90;;;15.28;100.00;100587.19;5049645;28;20028;-88
2022/06/29 00:36:01;;;;;;;4.75;2.20;;;18.40;99.90;;;15.27;100.00;100590.97;5049743;28;20051;-87
2022/06/29 00:38:29;;;;;;;6.55;2.30;;;18.40;99.90;;;15.24;100.00;100593.09;5048211;28;20037;-88
2022/06/29 00:40:56;;;;;;;4.57;2.00;;;18.40;99.90;;;15.21;100.00;100593.53;5050130;28;20773;-88
2022/06/29 00:43:24;;;;;;;5.35;2.38;;;18.40;99.90;;;15.21;100.00;100588.03;5050312;28;20045;-88
2022/06/29 00:45:51;;;;;;;7.13;2.20;;;18.30;99.90;;;15.18;100.00;100590.38;5050062;28;20052;-87
2022/06/29 00:48:19;;;;;;;4.75;2.10;;;18.30;99.90;;;15.15;100.00;100588.88;5049188;28;20559;-88
2022/06/29 00:50:48;;;;;;;7.68;2.00;;;18.20;99.90;;;15.14;100.00;100587.22;5050959;28;20083;-88
2022/06/29 00:53:17;;;;;;;6.57;2.03;;;18.30;99.90;;;15.14;100.00;100591.84;5049836;28;20036;-87
2022/06/29 00:55:47;;;;;;;4.88;2.28;;;18.30;99.90;;;15.13;100.00;100582.75;5043554;28;20057;-87
2022/06/29 00:58:21;;;;;;;6.28;2.05;;;18.20;99.90;;;15.11;100.00;100584.88;5047009;28;20075;-88
2022/06/29 01:00:48;;;;;;;4.68;2.40;;;18.20;99.90;;;15.10;100.00;100580.47;5048887;28;20545;-87
2022/06/29 01:03:15;;;;;;;6.82;2.53;;;18.20;99.90;;;15.11;100.00;100584.03;5049731;28;20120;-88
2022/06/29 01:05:43;;;;;;;6.32;2.50;;;18.20;99.90;;;15.09;100.00;100587.00;5048699;28;20128;-88
2022/06/29 01:08:13;;;;;;;4.60;2.03;;;18.20;99.90;;;15.10;100.00;100577.72;5048493;28;20575;-88
2022/06/29 01:10:40;;;;;;;5.28;2.28;;;18.20;99.90;;;15.14;100.00;100581.72;5053896;28;20047;-88
2022/06/29 01:13:07;;;;;;;4.78;2.13;;;18.20;99.90;;;15.17;100.00;100570.34;5041205;28;20041;-87
2022/06/29 01:15:35;;;;;;;5.35;2.30;;;18.20;99.90;;;15.19;100.00;100573.72;5042593;28;20072;-88
2022/06/29 01:18:02;;;;;;;6.38;2.45;;;18.20;99.90;;;15.21;100.00;100566.13;5049843;28;20049;-87
2022/06/29 01:20:30;;;;;;;5.30;2.20;;;18.20;99.90;;;15.26;100.00;100565.47;5046456;28;20045;-88
2022/06/29 01:22:59;;;;;;;4.22;2.20;;;18.20;99.90;;;15.31;100.00;100564.84;5041481;28;20079;-87
2022/06/29 01:25:27;;;;;;;4.75;2.40;;;18.20;99.90;;;15.34;100.00;100562.47;5058604;28;20044;-88
2022/06/29 01:27:54;;;;;;;4.80;2.30;;;18.20;99.90;;;15.36;100.00;100567.75;5052133;28;20059;-88
2022/06/29 01:30:21;;;;;;;5.95;2.50;;;18.20;99.90;;;15.38;100.00;100565.63;5041268;28;20148;-88
2022/06/29 01:32:49;;;;;;;6.72;2.97;;;18.20;99.90;;;15.39;100.00;100561.84;5049725;28;20045;-88
2022/06/29 01:35:16;;;;;;;6.05;2.80;;;18.20;99.90;;;15.41;100.00;100559.72;5048726;28;20526;-88
2022/06/29 01:37:44;;;;;;;5.35;2.45;;;18.20;99.90;;;15.40;100.00;100558.91;5048785;28;20147;-87
2022/06/29 01:40:14;;;;;;;6.07;2.40;;;18.20;99.90;;;15.40;100.00;100564.38;5063756;28;20041;-88
2022/06/29 01:42:41;;;;;;;4.97;2.47;;;18.20;99.90;;;15.40;100.00;100555.28;5047655;28;20124;-88
2022/06/29 01:45:10;;;;;;;5.65;2.40;;;18.20;99.90;;;15.38;100.00;100554.66;5056604;28;20042;-88
2022/06/29 01:47:38;;;;;;;5.63;2.90;;;18.20;99.90;;;15.33;100.00;100549.00;5047314;28;20136;-87
2022/06/29 01:50:06;;;;;;;6.90;2.65;;;18.20;99.90;;;15.31;100.00;100556.59;5045731;28;20048;-88
2022/06/29 01:52:33;;;;;;;6.45;2.22;;;18.20;99.90;;;15.30;100.00;100549.44;5047881;28;20517;-88
2022/06/29 01:55:00;;;;;;;5.60;2.40;;;18.20;99.90;;;15.31;100.00;100542.91;5048887;28;20041;-88
2022/06/29 01:57:29;;;;;;;5.45;2.50;;;18.20;99.90;;;15.30;100.00;100541.19;5046209;28;20569;-87
2022/06/29 01:59:56;;;;;;;5.75;2.35;;;18.20;99.90;;;15.32;100.00;100550.06;5047537;28;20044;-88
2022/06/29 02:02:24;;;;;;;7.15;2.75;;;18.10;99.90;;;15.30;100.00;100543.94;5047556;28;20045;-88
2022/06/29 02:04:51;;;;;;;5.78;2.63;;;18.20;99.90;;;15.28;100.00;100540.56;5048990;28;20048;-87
2022/06/29 02:07:18;;;;;;;7.20;2.30;;;18.10;99.90;;;15.27;100.00;100536.13;5043231;28;20175;-88
2022/06/29 02:09:45;;;;;;;6.45;2.40;;;18.10;99.90;;;15.26;100.00;100532.56;5063754;28;20045;-87
2022/06/29 02:12:13;;;;;;;7.05;2.65;;;18.10;99.90;;;15.23;100.00;100525.63;5048677;28;20105;-88
2022/06/29 02:14:41;;;;;;;5.88;2.75;;;18.10;99.90;;;15.23;100.00;100525.63;5054056;28;20047;-87
2022/06/29 02:17:08;;;;;;;4.80;2.70;;;18.10;99.90;;;15.22;100.00;100518.44;5037810;28;20072;-87
2022/06/29 02:19:36;;;;;;;5.72;2.72;;;18.10;99.90;;;15.20;100.00;100512.31;5037741;28;20041;-88
2022/06/29 02:22:04;;;;;;;6.75;2.40;;;18.10;99.90;;;15.20;100.00;100508.75;5049220;28;20055;-88
2022/06/29 02:24:31;;;;;;;4.88;2.70;;;18.10;99.90;;;15.23;100.00;100509.16;5042424;28;20045;-88
2022/06/29 02:26:58;;;;;;;5.97;2.40;;;18.10;99.90;;;15.25;100.00;100509.78;5046812;28;20495;-88
2022/06/29 02:29:25;;;;;;;5.00;2.42;;;18.10;99.90;;;15.24;100.00;100504.50;5047545;28;20335;-87
2022/06/29 02:34:46;;;;;;;5.00;2.55;;;18.10;99.90;;;15.28;100.00;100504.94;5047004;28;20049;-87
2022/06/29 02:37:14;;;;;;;4.82;2.40;;;18.10;99.90;;;15.30;100.00;100500.91;5061589;28;20510;-88
2022/06/29 02:39:43;;;;;;;8.95;2.72;;;18.10;99.90;;;15.33;100.00;100502.38;5047557;28;20044;-88
2022/06/29 02:42:11;;;;;;;5.75;2.45;;;18.10;99.90;;;15.33;100.00;100499.66;5029864;28;20045;-87
2022/06/29 02:44:39;;;;;;;4.95;2.40;;;18.10;99.90;;;15.33;100.00;100492.25;5042562;28;20041;-88
2022/06/29 02:47:08;;;;;;;5.53;2.60;;;18.10;99.90;;;15.33;100.00;100489.50;5046697;28;20076;-88
2022/06/29 02:49:36;;;;;;;5.85;2.50;;;18.10;99.90;;;15.35;100.00;100500.28;5047834;28;20053;-87
2022/06/29 02:52:04;;;;;;;6.72;2.75;;;18.10;99.90;;;15.36;100.00;100499.19;5057684;28;20077;-87
2022/06/29 02:54:31;;;;;;;6.95;2.85;;;18.10;99.90;;;15.38;100.00;100502.56;5060255;28;20441;-88
2022/06/29 02:56:59;;;;;;;4.65;2.50;;;18.10;99.90;;;15.38;100.00;100499.81;5053680;28;20045;-88
2022/06/29 02:59:26;;;;;;;4.88;2.47;;;18.10;99.90;;;15.37;100.00;100498.97;5044439;28;20572;-88
2022/06/29 03:01:53;;;;;;;5.45;2.60;;;18.10;99.90;;;15.39;100.00;100496.03;5048773;28;20620;-86
2022/06/29 03:04:22;;;;;;;6.78;2.42;;;18.10;99.90;;;15.40;100.00;100494.97;5043853;28;20047;-87
2022/06/29 03:06:49;;;;;;;6.68;2.50;;;18.10;99.90;;;15.41;100.00;100496.66;5047617;28;20140;-87
2022/06/29 03:09:16;;;;;;;4.18;2.20;;;18.10;99.90;;;15.38;100.00;100499.81;5047173;28;20045;-87
2022/06/29 03:11:44;;;;;;;4.88;2.60;;;18.10;99.90;;;15.37;100.00;100493.50;5044693;28;20495;-87
2022/06/29 03:14:11;;;;;;;5.07;2.10;;;18.10;99.90;;;15.31;100.00;100483.41;5045975;28;20048;-87
2022/06/29 03:16:38;;;;;;;6.18;2.47;;;18.10;99.90;;;15.29;100.00;100484.66;5067518;22;20144;-83
2022/06/29 03:19:05;;;;;;;4.85;2.65;;;18.10;99.90;;;15.27;100.00;100489.53;5063062;28;20041;-84
2022/06/29 03:21:34;;;;;;;5.78;2.75;;;18.10;99.90;;;15.25;100.00;100490.59;5064838;28;20040;-85
2022/06/29 03:24:03;;;;;;;6.97;2.80;;;18.00;99.90;;;15.21;100.00;100493.97;5059867;28;20045;-83
2022/06/29 03:26:31;;;;;;;4.82;2.55;;;18.00;99.90;;;15.21;100.00;100493.97;5054996;28;20039;-85
2022/06/29 03:28:58;;;;;;;5.93;2.60;;;18.00;99.90;;;15.15;100.00;100490.19;5048737;28;20052;-86
2022/06/29 03:31:25;;;;;;;7.55;2.60;;;18.00;99.90;;;15.12;100.00;100492.53;5046939;28;20552;-89
2022/06/29 03:33:52;;;;;;;5.25;2.58;;;18.00;99.90;;;15.08;100.00;100480.31;5047947;28;20056;-92
2022/06/29 03:36:20;;;;;;;5.50;2.63;;;18.00;99.90;;;15.06;100.00;100483.28;5049325;28;20067;-92
2022/06/29 03:38:48;;;;;;;6.50;2.72;;;18.00;99.90;;;15.01;100.00;100488.56;5048884;28;20090;-91
2022/06/29 03:41:15;;;;;;;6.18;2.97;;;18.00;99.90;;;14.98;100.00;100478.88;5048238;28;20114;-92
2022/06/29 03:43:43;;;;;;;5.47;2.28;;;17.90;99.90;;;14.96;100.00;100477.38;5048346;28;20460;-92
2022/06/29 03:46:10;;;;;;;7.13;2.60;;;17.90;99.90;;;14.92;100.00;100478.88;5047984;28;20082;-92
2022/06/29 03:48:37;;;;;;;4.60;2.70;;;17.90;99.90;;;14.88;100.00;100478.47;5048400;28;20045;-91
2022/06/29 03:51:05;;;;;;;7.72;2.63;;;17.90;99.90;;;14.89;100.00;100474.69;5048471;28;20415;-92
2022/06/29 03:53:32;;;;;;;5.63;2.70;;;17.90;99.90;;;14.90;100.00;100468.13;5038661;28;20049;-91
2022/06/29 03:56:00;;;;;;;6.57;2.72;;;17.90;99.90;;;14.92;100.00;100468.75;5047746;28;20457;-91
2022/06/29 03:58:28;;;;;;;4.85;2.30;;;17.80;99.90;;;14.92;100.00;100465.19;5052190;28;20124;-94
2022/06/29 04:00:55;;;;;;;7.05;2.67;;;17.80;99.90;;;14.94;100.00;100465.81;5037071;28;20046;-92
2022/06/29 04:03:22;;;;;;;5.93;2.67;;;17.80;99.90;;;14.98;100.00;100450.59;5051158;28;20072;-91
2022/06/29 04:05:49;;;;;;;5.00;2.90;;;17.80;99.90;;;15.03;100.00;100456.28;5042649;28;20514;-91
2022/06/29 04:08:17;;;;;;;5.88;2.92;;;17.80;99.90;;;15.04;100.00;100449.75;5044524;28;20558;-91
2022/06/29 04:10:44;;;;;;;4.32;2.53;;;17.80;99.90;;;15.07;100.00;100449.31;5046570;28;20049;-93
2022/06/29 04:13:13;;;;;;;6.88;2.15;;;17.80;99.90;;;15.12;100.00;100446.78;5052811;28;20522;-93
2022/06/29 04:15:41;;;;;;;4.45;2.38;;;17.80;99.90;;;15.11;100.00;100445.09;5050690;28;20815;-93
2022/06/29 04:18:09;;;;;;;5.60;2.67;;;17.80;99.90;;;15.16;100.00;100444.44;5051077;28;20060;-90
2022/06/29 04:23:21;;;;;;;7.45;2.70;;;17.90;99.90;;;15.31;100.00;100452.41;5036777;28;20087;-92
2022/06/29 04:25:48;;;;;;;4.80;2.60;;;17.90;99.90;;;15.38;100.00;100450.47;5050205;28;20049;-93
2022/06/29 04:28:17;;;;;;;7.35;3.00;;;17.90;99.90;;;15.45;100.00;100448.53;5052208;28;20040;-94
2022/06/29 04:30:44;;;;;;;4.50;2.58;;;18.00;99.90;;;15.48;100.00;100445.38;5052431;28;20051;-93
2022/06/29 04:33:11;;;;;;;5.40;2.60;;;17.90;99.90;;;15.52;100.00;100441.13;5048180;28;20400;-89
2022/06/29 04:35:42;;;;;;;6.10;2.78;;;18.00;99.90;;;15.54;100.00;100447.22;5045581;28;20047;-89
2022/06/29 04:38:12;;;;;;;3.50;2.20;;;18.00;99.90;;;15.59;100.00;100449.28;5052064;28;20111;-89
2022/06/29 04:40:39;;;;;;;5.45;2.30;;;18.00;99.90;;;15.63;100.00;100439.56;5052303;28;20295;-90
2022/06/29 04:43:07;;;;;;;8.75;3.22;;;18.00;99.90;;;15.74;100.00;100443.56;5049506;28;20079;-87
2022/06/29 04:48:20;;;;;;;9.82;2.78;;;18.10;99.90;;;16.07;100.00;100431.50;5042309;28;20132;-83
2022/06/29 04:50:47;;;;;;;5.55;2.40;;;18.10;99.90;;;16.08;100.00;100427.69;5065288;28;20037;-83
2022/06/29 04:53:14;;;;;;;9.75;2.75;;;18.20;99.90;;;16.08;100.00;100433.19;5053704;28;20047;-82
2022/06/29 04:55:41;;;;;;;7.43;2.97;;;18.20;99.90;;;16.05;100.00;100439.97;5047981;28;20491;-83
2022/06/29 04:58:09;;;;;;;4.78;2.60;;;18.20;99.90;;;16.06;100.00;100436.16;5050831;28;20045;-83
2022/06/29 05:00:37;;;;;;;5.78;2.72;;;18.20;99.90;;;16.09;100.00;100438.47;5051496;28;20045;-83
2022/06/29 05:03:04;;;;;;;6.47;2.85;;;18.30;99.90;;;16.12;100.00;100438.00;5051402;28;20796;-83
2022/06/29 05:05:31;;;;;;;7.85;3.05;;;18.30;99.90;;;16.20;100.00;100442.38;5049887;28;20059;-83
2022/06/29 05:07:59;;;;;;;7.97;2.92;;;18.30;99.90;;;16.23;100.00;100444.69;5050640;28;20399;-83
2022/06/29 05:10:26;;;;;;;7.47;2.80;;;18.40;99.90;;;16.30;100.00;100434.50;5049707;28;21407;-83
2022/06/29 05:12:53;;;;;;;5.43;2.92;;;18.40;99.90;;;16.50;100.00;100431.53;5049619;28;20045;-83
2022/06/29 05:15:21;;;;;;;9.10;3.50;;;18.40;99.90;;;16.75;100.00;100431.53;5050189;28;20041;-83
2022/06/29 05:17:49;;;;;;;8.18;4.07;;;18.50;99.90;;;16.85;100.00;100432.91;5045336;28;20123;-83
2022/06/29 05:20:17;;;;;;;8.98;4.30;;;18.60;99.90;;;17.27;100.00;100424.81;5045734;28;20124;-83
2022/06/29 05:22:44;;;;;;;6.95;3.58;;;18.70;99.90;;;17.51;100.00;100432.09;5051677;28;20045;-83
2022/06/29 05:25:11;;;;;;;7.90;3.47;;;18.80;99.90;;;17.69;99.52;100428.47;5050256;28;21290;-83
2022/06/29 05:27:38;;;;;;;7.05;3.10;;;18.90;99.90;;;17.85;98.17;100431.69;5041917;28;20525;-83
2022/06/29 05:30:07;;;;;;;6.07;3.17;;;18.90;99.90;;;18.00;95.84;100428.50;5051457;28;20073;-83
2022/06/29 05:32:35;;;;;;;7.35;3.10;;;19.00;99.90;;;18.08;97.57;100425.38;5043914;28;20048;-83
2022/06/29 05:35:05;;;;;;;7.15;3.00;;;19.10;99.90;;;18.09;95.73;100418.81;5046172;28;20032;-83
2022/06/29 05:37:32;;;;;;;6.13;3.20;;;19.10;99.90;;;18.23;94.70;100428.53;5051683;28;20037;-83
2022/06/29 05:40:00;;;;;;;6.85;2.85;;;19.20;99.90;;;18.31;93.46;100430.91;5050535;28;20430;-85
2022/06/29 05:42:27;;;;;;;8.93;3.08;;;19.20;99.90;;;18.43;92.79;100441.09;5050257;28;20041;-83
2022/06/29 05:44:54;;;;;;;7.40;2.90;;;19.30;99.90;;;18.39;90.34;100442.66;5051455;28;20041;-86
2022/06/29 05:47:22;;;;;;;5.43;2.65;;;19.40;99.90;;;18.45;92.19;100441.72;5050966;28;20218;-86
2022/06/29 05:49:49;;;;;;;8.30;2.75;;;19.40;99.90;;;18.45;92.08;100431.53;5041847;28;20049;-84
2022/06/29 05:52:18;;;;;;;9.45;3.15;;;19.50;99.90;;;18.51;90.19;100430.59;5051439;28;20044;-85
2022/06/29 05:54:45;;;;;;;11.32;3.08;;;19.50;99.90;;;18.61;89.61;100429.97;5050104;28;20824;-85
2022/06/29 05:57:12;;;;;;;6.47;3.22;;;19.60;99.90;;;18.61;88.95;100420.88;5049061;28;20040;-88
2022/06/29 05:59:40;;;;;;;6.93;2.67;;;19.60;99.90;;;18.60;88.50;100427.47;5050883;28;20056;-89
2022/06/29 06:02:08;;;;;;;11.23;3.47;;;19.70;99.90;;;18.59;88.41;100423.88;5051329;28;20067;-88
2022/06/29 06:04:35;;;;;;;8.00;3.50;;;19.70;99.90;;;19.81;85.11;100427.56;5051232;28;20052;-86
2022/06/29 06:07:02;;;;;;;6.30;2.75;;;19.70;99.90;;;22.61;72.47;100413.97;5051020;28;20399;-86
2022/06/29 06:09:32;;;;;;;6.90;2.85;;;20.10;99.90;;;21.96;71.81;100415.09;5050798;28;20051;-89
2022/06/29 06:11:59;;;;;;;10.30;2.75;;;20.30;99.70;;;20.94;75.20;100423.03;5051032;28;20249;-87
2022/06/29 06:14:26;;;;;;;7.63;2.75;;;20.40;99.00;;;20.31;78.39;100432.31;5051161;28;20076;-86
2022/06/29 06:16:54;;;;;;;7.25;2.88;;;20.50;98.90;;;19.99;80.34;100431.19;5050952;28;20052;-86
2022/06/29 06:19:21;;;;;;;9.02;2.53;;;20.50;98.80;;;19.68;80.27;100425.91;5049360;28;20493;-86
2022/06/29 06:21:48;;;;;;;5.45;2.40;;;20.50;98.60;;;19.49;81.87;100422.50;5050037;28;20083;-85
2022/06/29 06:24:15;;;;;;;14.73;2.92;;;20.50;98.10;;;19.40;82.83;100421.25;5050958;28;20045;-87
2022/06/29 06:26:44;;;;;;;8.88;2.75;;;20.50;98.60;;;19.70;81.85;100412.72;5050637;28;20443;-86
2022/06/29 06:29:11;;;;;;;7.38;2.72;;;20.50;98.80;;;19.81;82.35;100416.50;5050519;28;20052;-86
2022/06/29 06:31:38;;;;;;;5.50;2.45;;;20.50;99.20;;;19.69;85.59;100415.72;5050746;28;20749;-86
2022/06/29 06:34:06;;;;;;;5.85;2.75;;;20.50;99.90;;;19.53;86.56;100418.19;5034815;28;20049;-87
2022/06/29 06:36:33;;;;;;;5.88;2.85;;;20.50;99.90;;;19.44;86.45;100399.47;5030654;28;20056;-87
2022/06/29 06:39:00;;;;;;;8.93;3.17;;;20.50;99.90;;;19.49;84.28;100392.13;5030329;28;20120;-88
2022/06/29 06:41:26;;;;;;;6.65;2.72;;;20.50;99.60;;;19.66;86.99;100396.88;5030603;28;20514;-87
2022/06/29 06:43:56;;;;;;;9.02;2.97;;;20.50;99.90;;;19.98;87.16;100407.44;5030678;28;20120;-89
2022/06/29 06:46:24;;;;;;;7.80;2.85;;;20.50;99.90;;;20.15;88.05;100416.56;5030634;28;20136;-86
2022/06/29 06:48:52;;;;;;;9.07;3.05;;;20.50;99.90;;;20.33;85.40;100425.69;5030259;28;20388;-87
2022/06/29 06:51:20;;;;;;;6.55;3.05;;;20.70;99.90;;;20.42;86.48;100432.47;5030635;28;20051;-89
2022/06/29 06:53:48;;;;;;;8.75;3.03;;;20.70;99.90;;;20.43;83.04;100421.16;5030510;28;20046;-93
2022/06/29 06:56:16;;;;;;;9.57;3.20;;;20.80;99.90;;;20.59;84.41;100410.34;5033691;28;20140;-92
2022/06/29 06:58:49;;;;;;;6.70;3.00;;;20.80;99.90;;;20.69;85.93;100416.91;5050251;28;20045;-92
2022/06/29 07:01:18;;;;;;;6.45;2.90;;;20.80;99.90;;;20.63;83.70;100417.88;5050738;28;20076;-92
2022/06/29 07:03:45;;;;;;;7.47;3.00;;;20.90;99.90;;;20.39;81.80;100410.84;5050626;28;20556;-91
2022/06/29 07:06:13;;;;;;;7.75;2.90;;;20.90;99.90;;;20.26;81.16;100412.88;5050500;28;20498;-92
2022/06/29 07:08:41;;;;;;;6.35;2.90;;;20.90;99.50;;;20.14;85.93;100411.28;5050104;28;20073;-92
2022/06/29 07:11:09;;;;;;;11.30;2.70;;;20.90;99.90;;;19.98;87.88;100404.66;5050480;28;20102;-92
2022/06/29 07:13:37;;;;;;;6.85;2.60;;;20.90;99.90;;;19.81;90.11;100405.47;5050557;28;20575;-92
2022/06/29 07:16:06;;;;;;;7.43;3.03;;;20.90;99.90;;;19.63;91.42;100397.34;5048991;28;20045;-92
2022/06/29 07:18:35;;;;;;;7.28;2.50;;;20.90;99.90;;;19.56;93.20;100403.06;5050228;28;20128;-92
2022/06/29 07:21:03;;;;;;;7.72;2.95;;;20.80;99.90;;;19.54;93.20;100399.69;5050191;28;20048;-92
2022/06/29 07:23:30;;;;;;;7.20;2.80;;;20.80;99.90;;;19.55;88.13;100412.41;5050601;28;20068;-94
2022/06/29 07:25:58;;;;;;;7.40;2.80;;;20.80;99.90;;;19.51;88.65;100402.94;5050543;28;20045;-94
2022/06/29 07:28:25;;;;;;;9.70;2.97;;;20.80;99.90;;;19.51;87.84;100406.56;5050020;28;20041;-90
2022/06/29 07:30:52;;;;;;;8.27;2.50;;;20.70;99.90;;;19.49;88.37;100403.19;5050021;28;20099;-89
2022/06/29 07:33:20;;;;;;;7.93;2.63;;;20.80;99.90;;;19.48;88.13;100411.75;5049447;28;20047;-88
2022/06/29 07:35:48;;;;;;;10.57;2.45;;;20.70;99.90;;;19.45;88.36;100410.28;5049481;28;20044;-88
2022/06/29 07:38:15;;;;;;;5.15;2.88;;;20.80;99.90;;;19.45;88.94;100418.56;5049412;28;20119;-88
2022/06/29 07:40:43;;;;;;;8.15;2.63;;;20.80;99.90;;;19.44;89.17;100411.38;5049510;28;20041;-88
2022/06/29 07:43:10;;;;;;;5.07;2.50;;;20.70;99.90;;;19.46;88.64;100411.97;5049682;28;20068;-88
2022/06/29 07:45:37;;;;;;;6.75;2.65;;;20.80;99.90;;;19.47;90.04;100415.56;5049498;28;20491;-88
2022/06/29 07:48:05;;;;;;;8.02;2.72;;;20.80;99.90;;;19.50;89.22;100415.91;5048983;28;20075;-88
2022/06/29 07:50:33;;;;;;;8.32;2.75;;;20.70;99.90;;;19.56;90.68;100419.63;5049323;28;20127;-88
2022/06/29 07:53:01;;;;;;;10.02;2.60;;;20.70;99.90;;;19.57;89.37;100414.91;5044959;28;20053;-88
2022/06/29 07:55:28;;;;;;;6.38;2.65;;;20.80;99.90;;;19.61;88.24;100411.44;5048318;28;20056;-88
2022/06/29 07:57:56;;;;;;;7.43;2.78;;;20.80;99.90;;;19.65;87.44;100411.78;5049549;28;20037;-88
2022/06/29 08:00:23;;;;;;;6.85;2.72;;;20.80;99.90;;;19.71;85.66;100410.78;5049061;28;20558;-88
2022/06/29 08:02:51;;;;;;;7.80;2.28;;;20.80;99.90;;;19.76;83.91;100410.06;5049486;28;20083;-88
2022/06/29 08:05:18;;;;;;;9.60;2.60;;;20.80;98.80;;;19.78;81.90;100422.56;5049319;28;20495;-88
2022/06/29 08:07:46;;;;;;;6.43;2.40;;;20.80;98.00;;;19.79;81.85;100421.44;5049359;28;20118;-89
2022/06/29 08:10:15;;;;;;;6.22;2.63;;;20.80;97.80;;;19.79;82.06;100423.38;5047680;28;20565;-88
2022/06/29 08:12:46;;;;;;;5.95;2.72;;;20.80;97.70;;;19.80;81.74;100425.91;5049400;28;20422;-88
2022/06/29 08:15:15;;;;;;;5.95;2.45;;;20.90;97.00;;;19.79;80.98;100417.84;5049062;28;20069;-88
2022/06/29 08:17:42;;;;;;;9.48;2.30;;;20.90;97.00;;;19.77;80.17;100409.81;5049225;28;20056;-88
2022/06/29 08:20:11;;;;;;;6.40;2.20;;;20.90;96.90;;;19.77;79.17;100417.28;5049051;28;20064;-88
2022/06/29 08:22:38;;;;;;;6.15;2.53;;;20.90;95.90;;;19.79;80.13;100418.69;5049313;28;20072;-88
2022/06/29 08:25:06;;;;;;;8.10;2.47;;;20.90;96.50;;;19.82;80.67;100415.44;5047903;28;20152;-88
2022/06/29 08:27:35;;;;;;;5.22;2.45;;;20.90;96.50;;;19.88;80.19;100408.91;5049058;28;20431;-88
2022/06/29 08:30:02;;;;;;;6.53;2.65;;;20.90;96.60;;;19.92;79.84;100418.38;5049033;28;20045;-88
2022/06/29 08:32:30;;;;;;;7.65;2.70;;;20.90;96.50;;;19.95;78.74;100422.56;5049326;28;20466;-88
2022/06/29 08:34:59;;;;;;;6.90;2.42;;;21.00;95.70;;;19.99;77.93;100417.38;5049114;28;20764;-88
2022/06/29 08:37:27;;;;;;;6.05;2.50;;;21.00;95.30;;;20.01;79.86;100413.28;5032769;28;20500;-89
2022/06/29 08:39:54;;;;;;;7.10;2.72;;;21.00;96.40;;;20.04;79.37;100409.19;5028886;28;20038;-88
2022/06/29 08:42:24;;;;;;;5.95;2.50;;;21.00;96.50;;;20.11;88.00;100412.63;5029236;28;20048;-88
2022/06/29 08:44:53;;;;;;;5.50;2.55;;;21.10;99.90;;;20.13;92.95;100406.84;5031530;28;20414;-89
2022/06/29 08:47:20;;;;;;;6.68;2.70;;;21.10;99.90;;;20.15;96.39;100405.50;5031331;28;20045;-88
2022/06/29 08:49:47;;;;;;;6.45;2.90;;;21.10;99.90;;;20.19;97.31;100406.66;5031105;28;20168;-88
2022/06/29 08:52:17;;;;;;;8.27;3.00;;;21.10;99.90;;;20.24;97.59;100404.00;5032741;28;20037;-88
2022/06/29 08:54:46;;;;;;;5.07;2.70;;;21.10;99.90;;;20.29;97.50;100406.00;5031233;28;20667;-88
2022/06/29 08:57:14;;;;;;;6.70;2.85;;;21.20;99.90;;;20.31;96.77;100412.97;5032799;28;20091;-92
2022/06/29 08:59:41;;;;;;;7.25;3.00;;;21.20;99.90;;;20.37;98.21;100413.03;5031525;28;20041;-87
2022/06/29 09:02:12;;;;;;;7.25;2.97;;;21.20;99.90;;;20.37;95.84;100413.03;5051134;28;20490;-87
2022/06/29 09:04:41;;;;;;;8.30;3.00;;;21.20;99.90;;;20.35;93.44;100415.22;5050910;28;20103;-87
2022/06/29 09:07:08;;;;;;;6.35;2.80;;;21.20;99.90;;;20.37;92.31;100410.25;5052424;28;20064;-87
2022/06/29 09:10:01;;;;;;;8.48;3.17;;;21.20;99.90;;;20.40;96.08;100413.38;5051940;28;20052;-87
2022/06/29 09:12:31;;;;;;;4.22;2.70;;;21.20;99.90;;;20.42;97.77;100410.34;5052435;28;20036;-87
2022/06/29 09:14:59;;;;;;;6.13;2.80;;;21.20;99.90;;;20.41;96.05;100416.97;5051916;28;20087;-85
2022/06/29 09:17:30;;;;;;;6.43;3.30;;;21.30;99.90;;;20.40;96.27;100418.06;5086444;22;20052;-80
2022/06/29 09:19:58;;;;;;;7.13;2.97;;;21.30;99.90;;;20.34;96.75;100416.31;5069977;28;20155;-81
2022/06/29 09:22:25;;;;;;;6.18;3.17;;;21.20;99.90;;;20.30;96.92;100414.03;5072025;28;20127;-81
2022/06/29 09:24:52;;;;;;;6.55;2.65;;;21.20;99.90;;;20.29;91.74;100417.88;5071839;28;20391;-81
2022/06/29 09:27:20;;;;;;;7.38;3.03;;;21.30;99.90;;;20.32;94.94;100424.84;5071433;28;20079;-80
2022/06/29 09:29:47;;;;;;;6.18;2.78;;;21.20;99.90;;;20.30;92.88;100425.09;5071700;28;20036;-81
2022/06/29 09:32:17;;;;;;;7.95;2.88;;;21.30;99.90;;;20.34;86.88;100424.59;5071906;28;20040;-81
2022/06/29 09:34:49;;;;;;;5.18;2.38;;;21.20;99.90;;;20.34;85.35;100424.59;5071898;28;20469;-81
2022/06/29 09:37:18;;;;;;;7.95;2.65;;;21.20;99.90;;;20.35;84.68;100420.75;5071872;28;20048;-81
2022/06/29 09:39:48;;;;;;;8.00;2.90;;;21.30;99.80;;;20.40;86.12;100420.81;5071328;28;20064;-81
2022/06/29 09:42:17;;;;;;;7.20;2.65;;;21.30;99.90;;;20.41;84.19;100419.72;5071813;28;20125;-81
2022/06/29 09:44:46;;;;;;;7.15;2.72;;;21.30;99.60;;;20.44;83.96;100430.28;5071582;28;20044;-80
2022/06/29 09:47:16;;;;;;;6.95;2.55;;;21.30;99.40;;;20.43;83.45;100435.00;5071500;28;20143;-81
2022/06/29 09:49:47;;;;;;;12.40;3.08;;;21.40;99.40;;;20.47;81.70;100432.56;5069903;28;20328;-81
2022/06/29 09:52:15;;;;;;;5.15;2.67;;;21.30;98.20;;;20.52;80.18;100432.63;5070413;28;20075;-80
2022/06/29 09:54:48;;;;;;;8.55;2.60;;;21.30;97.30;;;20.56;79.26;100427.44;5069240;28;20063;-81
2022/06/29 09:57:19;;;;;;;5.32;2.60;;;21.30;96.80;;;20.62;77.85;100431.97;5071293;28;20115;-81
2022/06/29 10:02:37;;;;;;;11.00;2.38;;;21.40;96.30;;;20.73;78.30;100427.44;5071478;28;20496;-80
2022/06/29 10:05:09;;;;;;;5.75;2.70;;;21.40;96.30;;;20.79;80.04;100418.09;5071128;28;20052;-80
2022/06/29 10:07:40;;;;;;;9.50;2.60;;;21.40;97.50;;;20.81;75.25;100419.56;5071069;28;20078;-81
2022/06/29 10:10:10;;;;;;;5.88;2.67;;;21.50;95.40;;;20.88;75.88;100416.59;5071005;28;20057;-81
2022/06/29 10:16:19;;;;;;;4.80;2.45;;;21.50;93.80;;;21.06;72.38;100416.28;5070663;28;20792;-81
2022/06/29 10:19:11;;;;;;;6.32;2.60;;;21.60;92.90;;;21.08;69.71;100405.78;5070658;28;20094;-81
2022/06/29 10:21:40;;;;;;;7.57;2.40;;;21.60;91.10;;;21.11;69.15;100406.38;5071023;28;20044;-80
2022/06/29 10:24:08;;;;;;;4.38;2.40;;;21.60;90.90;;;21.12;68.70;100402.53;5070904;28;20135;-80
2022/06/29 10:26:48;;;;;;;9.80;2.83;;;21.60;90.20;;;21.13;70.19;100410.53;5070819;28;20040;-80